FNLU

Quatro de Fevereiro Airport

Luanda, Angola
METAR FNLU 181000Z 29005KT 5000 BR FEW018 BKN020 26/21 Q1015 NOSIG
Observed Flight Rules
Jun-18 @ 10:00 UTC (an hour ago) Marginal Visual Flight Rules
Wind Visibility Clouds Conditions
290° at 5 knots 5,005 meters
  • Few at 1,800' AGL
  • Broken at 2,000' AGL
  • Mist
Temperatures Readings
Current 26°C / 79°F
Dewpoint 21°C / 70°F
Humidity 74%
Altimeter 29.97" Hg
Pressure 1015 hPa
Elevation 70
METAR FNLU 181000Z 29005KT 5000 BR FEW018 BKN020 26/21 Q1015 NOSIG
Observed Flight Rules
Jun-18 @ 10:00 UTC
(an hour ago)
MVFR
Wind Visibility
290° at 5 knots 5,005 meters
Clouds
  • Few at 1,800' AGL
  • Broken at 2,000' AGL
Conditions
  • Mist
Temperature Dewpoint
26°C / 79°F 21°C / 70°F
Humidity Altimeter Pressure
74% 29.97" Hg 1015 hPa